首页
METAR-TAF:

METAR-TAF

机场 :

底特律, 密歇根州, 美国

纬度: 42-24-33N, 经度: 083-00-36W, 海拔: 191米

当前天气观测

该预报发布于7分钟前的17:14 UTC
风速6节,风向
温度 20°C
湿度 60%
气压 1017 hPa
能見度: 16.1公里
阴天层高于3000英尺

METAR: KDET 171714Z 10006KT 10SM OVC030 20/12 A3003 RMK AO2 T02000122

时间: 13:21 (17:21 UTC)

预报

该预报发布于2小时和36分钟前的14:45 UTC
预报有效从17日的 15点(UTC)到 18日的 12点(UTC)
风速5节,风向北转东北
能見度: 10公里
阴天层高于3000英尺
从 17日的 2000点(UTC)
风速7节,风向东转东南
能見度: 10公里
阴天层高于3500英尺
从 18日的 0200点(UTC)
风速3节,风向多变
能見度: 10公里
多云层高于4000英尺
阴天层高于25000英尺
从 18日的 0800点(UTC)
风速5节,风向北转东北
能見度: 10公里
散云层高于2500英尺
阴天层高于4000英尺

TAF: KDET 171445Z 1715/1812 03005KT P6SM OVC030 FM172000 11007KT P6SM OVC035 FM180200 VRB03KT P6SM BKN040 OVC250 FM180800 03005KT P6SM SCT025 OVC040

超过4000个机场的气象观测和天气预报(METAR&TAF报告)。

可查询的气象台以黄色和红色小点在地图上表示。

将鼠标移到小点上方,可查看气象台名称。

然后点击查看天气观测和预报。

如需切换地图:点击带黑十字的绿色按钮放大地图;点击带横线的绿色按钮缩小地图;或者点击绿色箭头查看邻近地区的地图。


METAR-TAF: